sensor_id;sensor_type;location;lat;lon;timestamp;P1;durP1;ratioP1;P2;durP2;ratioP2
44145;SDS011;29809;52.432;4.780;2023-01-15T00:00:39;5.03;;;1.50;;
44145;SDS011;29809;52.432;4.780;2023-01-15T00:03:04;4.82;;;1.90;;
44145;SDS011;29809;52.432;4.780;2023-01-15T00:05:30;6.88;;;2.10;;
44145;SDS011;29809;52.432;4.780;2023-01-15T00:07:55;4.65;;;1.63;;
44145;SDS011;29809;52.432;4.780;2023-01-15T00:10:20;7.05;;;2.67;;
44145;SDS011;29809;52.432;4.780;2023-01-15T00:12:46;7.32;;;1.90;;
44145;SDS011;29809;52.432;4.780;2023-01-15T00:15:11;5.30;;;1.77;;
44145;SDS011;29809;52.432;4.780;2023-01-15T00:17:36;7.22;;;2.53;;
44145;SDS011;29809;52.432;4.780;2023-01-15T00:20:02;5.80;;;1.95;;
44145;SDS011;29809;52.432;4.780;2023-01-15T00:22:29;7.05;;;1.98;;
44145;SDS011;29809;52.432;4.780;2023-01-15T00:24:54;4.90;;;1.60;;
44145;SDS011;29809;52.432;4.780;2023-01-15T00:27:38;6.60;;;2.17;;
44145;SDS011;29809;52.432;4.780;2023-01-15T00:30:04;4.82;;;1.50;;
44145;SDS011;29809;52.432;4.780;2023-01-15T00:32:30;4.95;;;2.03;;
44145;SDS011;29809;52.432;4.780;2023-01-15T00:34:57;5.22;;;2.00;;
44145;SDS011;29809;52.432;4.780;2023-01-15T00:37:22;6.80;;;2.05;;
44145;SDS011;29809;52.432;4.780;2023-01-15T00:39:47;5.05;;;2.03;;
44145;SDS011;29809;52.432;4.780;2023-01-15T00:42:12;6.32;;;2.22;;
44145;SDS011;29809;52.432;4.780;2023-01-15T00:44:38;6.03;;;2.42;;
44145;SDS011;29809;52.432;4.780;2023-01-15T00:47:03;6.47;;;2.40;;
44145;SDS011;29809;52.432;4.780;2023-01-15T00:49:30;6.30;;;1.98;;
44145;SDS011;29809;52.432;4.780;2023-01-15T00:51:55;5.70;;;1.80;;
44145;SDS011;29809;52.432;4.780;2023-01-15T00:54:20;5.10;;;1.80;;
44145;SDS011;29809;52.432;4.780;2023-01-15T00:56:46;7.97;;;2.78;;
44145;SDS011;29809;52.432;4.780;2023-01-15T00:59:11;6.20;;;2.00;;
44145;SDS011;29809;52.432;4.780;2023-01-15T01:01:36;6.97;;;2.22;;
44145;SDS011;29809;52.432;4.780;2023-01-15T01:04:02;7.93;;;2.10;;
44145;SDS011;29809;52.432;4.780;2023-01-15T01:06:27;7.03;;;2.00;;
44145;SDS011;29809;52.432;4.780;2023-01-15T01:08:52;6.95;;;2.08;;
44145;SDS011;29809;52.432;4.780;2023-01-15T01:11:19;9.07;;;2.00;;
44145;SDS011;29809;52.432;4.780;2023-01-15T01:13:45;5.53;;;1.70;;
44145;SDS011;29809;52.432;4.780;2023-01-15T01:16:20;7.65;;;2.20;;
44145;SDS011;29809;52.432;4.780;2023-01-15T01:18:46;8.02;;;1.98;;
44145;SDS011;29809;52.432;4.780;2023-01-15T01:21:11;9.70;;;2.63;;
44145;SDS011;29809;52.432;4.780;2023-01-15T01:23:36;6.43;;;2.40;;
44145;SDS011;29809;52.432;4.780;2023-01-15T01:26:02;5.07;;;1.80;;
44145;SDS011;29809;52.432;4.780;2023-01-15T01:28:27;7.40;;;1.90;;
44145;SDS011;29809;52.432;4.780;2023-01-15T01:30:52;7.50;;;2.33;;
44145;SDS011;29809;52.432;4.780;2023-01-15T01:33:17;6.40;;;2.03;;
44145;SDS011;29809;52.432;4.780;2023-01-15T01:35:46;6.88;;;1.98;;
44145;SDS011;29809;52.432;4.780;2023-01-15T01:38:12;6.68;;;1.98;;
44145;SDS011;29809;52.432;4.780;2023-01-15T01:40:37;5.63;;;1.77;;
44145;SDS011;29809;52.432;4.780;2023-01-15T01:43:05;7.82;;;2.03;;
44145;SDS011;29809;52.432;4.780;2023-01-15T01:45:33;6.63;;;1.77;;
44145;SDS011;29809;52.432;4.780;2023-01-15T01:47:59;4.75;;;1.70;;
44145;SDS011;29809;52.432;4.780;2023-01-15T01:50:26;5.65;;;2.15;;
44145;SDS011;29809;52.432;4.780;2023-01-15T01:52:53;5.80;;;1.98;;
44145;SDS011;29809;52.432;4.780;2023-01-15T01:55:20;6.78;;;2.17;;
44145;SDS011;29809;52.432;4.780;2023-01-15T01:57:46;7.10;;;2.15;;
44145;SDS011;29809;52.432;4.780;2023-01-15T02:00:12;5.88;;;1.98;;
44145;SDS011;29809;52.432;4.780;2023-01-15T02:02:39;8.63;;;2.10;;
44145;SDS011;29809;52.432;4.780;2023-01-15T02:05:04;5.97;;;1.80;;
44145;SDS011;29809;52.432;4.780;2023-01-15T02:07:31;10.25;;;2.38;;
44145;SDS011;29809;52.432;4.780;2023-01-15T02:09:58;5.80;;;2.08;;
44145;SDS011;29809;52.432;4.780;2023-01-15T02:12:26;8.43;;;2.47;;
44145;SDS011;29809;52.432;4.780;2023-01-15T02:17:28;6.90;;;2.40;;
44145;SDS011;29809;52.432;4.780;2023-01-15T02:20:09;4.75;;;1.80;;
44145;SDS011;29809;52.432;4.780;2023-01-15T02:22:53;8.48;;;2.08;;
44145;SDS011;29809;52.432;4.780;2023-01-15T02:25:27;6.85;;;2.38;;
44145;SDS011;29809;52.432;4.780;2023-01-15T02:31:01;4.88;;;1.95;;
44145;SDS011;29809;52.432;4.780;2023-01-15T02:33:30;7.38;;;2.17;;
44145;SDS011;29809;52.432;4.780;2023-01-15T02:35:57;8.33;;;2.17;;
44145;SDS011;29809;52.432;4.780;2023-01-15T02:38:25;6.05;;;2.03;;
44145;SDS011;29809;52.432;4.780;2023-01-15T02:40:53;10.50;;;2.50;;
44145;SDS011;29809;52.432;4.780;2023-01-15T02:43:19;9.00;;;2.25;;
44145;SDS011;29809;52.432;4.780;2023-01-15T02:45:46;8.23;;;2.08;;
44145;SDS011;29809;52.432;4.780;2023-01-15T02:48:13;8.15;;;2.40;;
44145;SDS011;29809;52.432;4.780;2023-01-15T02:50:41;8.80;;;2.17;;
44145;SDS011;29809;52.432;4.780;2023-01-15T02:53:08;5.82;;;2.10;;
44145;SDS011;29809;52.432;4.780;2023-01-15T02:55:38;7.50;;;2.15;;
44145;SDS011;29809;52.432;4.780;2023-01-15T02:58:06;5.80;;;1.70;;
44145;SDS011;29809;52.432;4.780;2023-01-15T03:00:34;6.80;;;2.53;;
44145;SDS011;29809;52.432;4.780;2023-01-15T03:03:05;5.93;;;2.13;;
44145;SDS011;29809;52.432;4.780;2023-01-15T03:05:34;5.32;;;2.10;;
44145;SDS011;29809;52.432;4.780;2023-01-15T03:08:00;7.82;;;2.00;;
44145;SDS011;29809;52.432;4.780;2023-01-15T03:10:38;8.65;;;2.40;;
44145;SDS011;29809;52.432;4.780;2023-01-15T03:13:06;8.27;;;2.37;;
44145;SDS011;29809;52.432;4.780;2023-01-15T03:15:43;5.50;;;2.05;;
44145;SDS011;29809;52.432;4.780;2023-01-15T03:18:30;4.78;;;2.03;;
44145;SDS011;29809;52.432;4.780;2023-01-15T03:20:58;5.63;;;1.98;;
44145;SDS011;29809;52.432;4.780;2023-01-15T03:23:24;6.35;;;2.20;;
44145;SDS011;29809;52.432;4.780;2023-01-15T03:25:51;6.22;;;1.95;;
44145;SDS011;29809;52.432;4.780;2023-01-15T03:28:18;6.65;;;2.13;;
44145;SDS011;29809;52.432;4.780;2023-01-15T03:30:45;6.80;;;2.40;;
44145;SDS011;29809;52.432;4.780;2023-01-15T03:33:10;6.88;;;2.30;;
44145;SDS011;29809;52.432;4.780;2023-01-15T03:38:07;3.78;;;1.73;;
44145;SDS011;29809;52.432;4.780;2023-01-15T03:40:32;10.02;;;2.47;;
44145;SDS011;29809;52.432;4.780;2023-01-15T03:43:00;7.88;;;2.22;;
44145;SDS011;29809;52.432;4.780;2023-01-15T03:45:44;7.63;;;1.92;;
44145;SDS011;29809;52.432;4.780;2023-01-15T03:48:17;4.88;;;1.90;;
44145;SDS011;29809;52.432;4.780;2023-01-15T03:51:00;4.43;;;1.90;;
44145;SDS011;29809;52.432;4.780;2023-01-15T03:53:29;8.68;;;2.08;;
44145;SDS011;29809;52.432;4.780;2023-01-15T03:58:29;7.17;;;2.37;;
44145;SDS011;29809;52.432;4.780;2023-01-15T04:00:57;4.65;;;1.80;;
44145;SDS011;29809;52.432;4.780;2023-01-15T04:03:23;7.45;;;2.00;;
44145;SDS011;29809;52.432;4.780;2023-01-15T04:05:49;10.07;;;2.43;;
44145;SDS011;29809;52.432;4.780;2023-01-15T04:08:15;6.63;;;1.98;;
44145;SDS011;29809;52.432;4.780;2023-01-15T04:10:51;5.78;;;1.63;;
44145;SDS011;29809;52.432;4.780;2023-01-15T04:13:16;4.47;;;1.83;;
44145;SDS011;29809;52.432;4.780;2023-01-15T04:15:42;8.43;;;1.77;;
44145;SDS011;29809;52.432;4.780;2023-01-15T04:18:07;7.13;;;2.30;;
44145;SDS011;29809;52.432;4.780;2023-01-15T04:20:32;5.72;;;1.80;;
44145;SDS011;29809;52.432;4.780;2023-01-15T04:22:58;7.47;;;2.23;;
44145;SDS011;29809;52.432;4.780;2023-01-15T04:25:23;7.15;;;2.10;;
44145;SDS011;29809;52.432;4.780;2023-01-15T04:27:48;9.38;;;2.20;;
44145;SDS011;29809;52.432;4.780;2023-01-15T04:30:14;7.23;;;2.20;;
44145;SDS011;29809;52.432;4.780;2023-01-15T04:32:41;6.22;;;1.90;;
44145;SDS011;29809;52.432;4.780;2023-01-15T04:35:06;8.52;;;2.25;;
44145;SDS011;29809;52.432;4.780;2023-01-15T04:37:32;8.27;;;2.45;;
44145;SDS011;29809;52.432;4.780;2023-01-15T04:39:57;9.30;;;1.98;;
44145;SDS011;29809;52.432;4.780;2023-01-15T04:42:23;7.40;;;2.83;;
44145;SDS011;29809;52.432;4.780;2023-01-15T04:45:08;6.20;;;1.83;;
44145;SDS011;29809;52.432;4.780;2023-01-15T04:47:34;6.47;;;2.07;;
44145;SDS011;29809;52.432;4.780;2023-01-15T04:49:59;8.98;;;2.45;;
44145;SDS011;29809;52.432;4.780;2023-01-15T04:52:24;3.90;;;1.77;;
44145;SDS011;29809;52.432;4.780;2023-01-15T04:54:49;6.72;;;2.38;;
44145;SDS011;29809;52.432;4.780;2023-01-15T04:57:15;7.47;;;2.47;;
44145;SDS011;29809;52.432;4.780;2023-01-15T04:59:40;7.85;;;2.10;;
44145;SDS011;29809;52.432;4.780;2023-01-15T05:02:05;7.10;;;1.70;;
44145;SDS011;29809;52.432;4.780;2023-01-15T05:04:31;7.15;;;2.38;;
44145;SDS011;29809;52.432;4.780;2023-01-15T05:06:56;4.87;;;2.53;;
44145;SDS011;29809;52.432;4.780;2023-01-15T05:09:21;7.60;;;2.10;;
44145;SDS011;29809;52.432;4.780;2023-01-15T05:11:47;8.02;;;2.13;;
44145;SDS011;29809;52.432;4.780;2023-01-15T05:14:12;6.97;;;2.10;;
44145;SDS011;29809;52.432;4.780;2023-01-15T05:16:37;4.57;;;1.65;;
44145;SDS011;29809;52.432;4.780;2023-01-15T05:19:03;8.20;;;2.30;;
44145;SDS011;29809;52.432;4.780;2023-01-15T05:21:29;5.03;;;2.13;;
44145;SDS011;29809;52.432;4.780;2023-01-15T05:23:56;5.45;;;1.85;;
44145;SDS011;29809;52.432;4.780;2023-01-15T05:26:22;6.65;;;2.22;;
44145;SDS011;29809;52.432;4.780;2023-01-15T05:28:47;4.87;;;1.80;;
44145;SDS011;29809;52.432;4.780;2023-01-15T05:31:16;6.20;;;2.30;;
44145;SDS011;29809;52.432;4.780;2023-01-15T05:33:41;5.17;;;1.87;;
44145;SDS011;29809;52.432;4.780;2023-01-15T05:36:08;6.23;;;2.13;;
44145;SDS011;29809;52.432;4.780;2023-01-15T05:38:34;4.33;;;1.63;;
44145;SDS011;29809;52.432;4.780;2023-01-15T05:41:02;4.30;;;1.60;;
44145;SDS011;29809;52.432;4.780;2023-01-15T05:43:28;5.15;;;1.27;;
44145;SDS011;29809;52.432;4.780;2023-01-15T05:51:06;4.20;;;1.50;;
44145;SDS011;29809;52.432;4.780;2023-01-15T05:53:31;4.90;;;2.08;;
44145;SDS011;29809;52.432;4.780;2023-01-15T05:56:02;6.57;;;1.50;;
44145;SDS011;29809;52.432;4.780;2023-01-15T05:58:27;6.15;;;1.95;;
44145;SDS011;29809;52.432;4.780;2023-01-15T06:00:52;5.72;;;2.38;;
44145;SDS011;29809;52.432;4.780;2023-01-15T06:03:20;5.60;;;1.63;;
44145;SDS011;29809;52.432;4.780;2023-01-15T06:05:48;8.18;;;2.47;;
44145;SDS011;29809;52.432;4.780;2023-01-15T06:08:14;5.37;;;2.13;;
44145;SDS011;29809;52.432;4.780;2023-01-15T06:10:39;7.15;;;1.73;;
44145;SDS011;29809;52.432;4.780;2023-01-15T06:13:04;3.42;;;1.65;;
44145;SDS011;29809;52.432;4.780;2023-01-15T06:15:29;5.97;;;1.77;;
44145;SDS011;29809;52.432;4.780;2023-01-15T06:17:55;6.90;;;1.90;;
44145;SDS011;29809;52.432;4.780;2023-01-15T06:20:20;7.70;;;1.63;;
44145;SDS011;29809;52.432;4.780;2023-01-15T06:22:47;7.90;;;2.10;;
44145;SDS011;29809;52.432;4.780;2023-01-15T06:25:12;8.37;;;1.83;;
44145;SDS011;29809;52.432;4.780;2023-01-15T06:27:38;7.60;;;1.80;;
44145;SDS011;29809;52.432;4.780;2023-01-15T06:30:03;6.37;;;2.00;;
44145;SDS011;29809;52.432;4.780;2023-01-15T06:32:30;4.63;;;1.83;;
44145;SDS011;29809;52.432;4.780;2023-01-15T06:34:55;6.23;;;1.80;;
44145;SDS011;29809;52.432;4.780;2023-01-15T06:37:20;10.90;;;2.33;;
44145;SDS011;29809;52.432;4.780;2023-01-15T06:39:45;4.60;;;1.77;;
44145;SDS011;29809;52.432;4.780;2023-01-15T06:42:11;4.17;;;1.57;;
44145;SDS011;29809;52.432;4.780;2023-01-15T06:44:59;8.70;;;2.23;;
44145;SDS011;29809;52.432;4.780;2023-01-15T06:47:43;5.68;;;2.08;;
44145;SDS011;29809;52.432;4.780;2023-01-15T06:50:10;7.50;;;1.80;;
44145;SDS011;29809;52.432;4.780;2023-01-15T06:52:35;7.67;;;1.70;;
44145;SDS011;29809;52.432;4.780;2023-01-15T06:55:00;9.27;;;2.10;;
44145;SDS011;29809;52.432;4.780;2023-01-15T06:57:26;7.27;;;1.73;;
44145;SDS011;29809;52.432;4.780;2023-01-15T06:59:51;6.53;;;1.97;;
44145;SDS011;29809;52.432;4.780;2023-01-15T07:02:17;8.53;;;2.10;;
44145;SDS011;29809;52.432;4.780;2023-01-15T07:04:42;6.27;;;2.10;;
44145;SDS011;29809;52.432;4.780;2023-01-15T07:07:07;6.27;;;2.03;;
44145;SDS011;29809;52.432;4.780;2023-01-15T07:09:33;5.40;;;2.00;;
44145;SDS011;29809;52.432;4.780;2023-01-15T07:11:58;6.67;;;2.67;;
44145;SDS011;29809;52.432;4.780;2023-01-15T07:14:24;8.57;;;2.33;;
44145;SDS011;29809;52.432;4.780;2023-01-15T07:16:52;5.23;;;2.07;;
44145;SDS011;29809;52.432;4.780;2023-01-15T07:19:17;6.07;;;1.80;;
44145;SDS011;29809;52.432;4.780;2023-01-15T07:21:43;5.57;;;1.87;;
44145;SDS011;29809;52.432;4.780;2023-01-15T07:24:08;6.40;;;1.63;;
44145;SDS011;29809;52.432;4.780;2023-01-15T07:26:34;8.33;;;1.87;;
44145;SDS011;29809;52.432;4.780;2023-01-15T07:29:00;8.37;;;1.90;;
44145;SDS011;29809;52.432;4.780;2023-01-15T07:31:25;8.83;;;2.30;;
44145;SDS011;29809;52.432;4.780;2023-01-15T07:33:50;6.93;;;2.27;;
44145;SDS011;29809;52.432;4.780;2023-01-15T07:36:16;3.43;;;1.50;;
44145;SDS011;29809;52.432;4.780;2023-01-15T07:38:41;6.17;;;1.97;;
44145;SDS011;29809;52.432;4.780;2023-01-15T07:41:06;6.37;;;2.30;;
44145;SDS011;29809;52.432;4.780;2023-01-15T07:43:50;5.73;;;1.90;;
44145;SDS011;29809;52.432;4.780;2023-01-15T07:46:34;70.93;;;21.63;;
44145;SDS011;29809;52.432;4.780;2023-01-15T07:49:18;60.93;;;18.47;;
44145;SDS011;29809;52.432;4.780;2023-01-15T07:52:02;51.73;;;13.97;;
44145;SDS011;29809;52.432;4.780;2023-01-15T07:54:28;41.03;;;12.37;;
44145;SDS011;29809;52.432;4.780;2023-01-15T07:56:53;34.60;;;10.67;;
44145;SDS011;29809;52.432;4.780;2023-01-15T07:59:19;36.40;;;11.23;;
44145;SDS011;29809;52.432;4.780;2023-01-15T08:01:45;28.10;;;9.23;;
44145;SDS011;29809;52.432;4.780;2023-01-15T08:04:10;21.40;;;7.27;;
44145;SDS011;29809;52.432;4.780;2023-01-15T08:06:35;25.47;;;7.90;;
44145;SDS011;29809;52.432;4.780;2023-01-15T08:09:01;24.83;;;6.53;;
44145;SDS011;29809;52.432;4.780;2023-01-15T08:11:26;20.63;;;6.57;;
44145;SDS011;29809;52.432;4.780;2023-01-15T08:14:10;14.10;;;4.77;;
44145;SDS011;29809;52.432;4.780;2023-01-15T08:16:54;11.00;;;4.47;;
44145;SDS011;29809;52.432;4.780;2023-01-15T08:19:19;12.80;;;4.87;;
44145;SDS011;29809;52.432;4.780;2023-01-15T08:21:44;10.53;;;4.07;;
44145;SDS011;29809;52.432;4.780;2023-01-15T08:24:10;12.07;;;3.87;;
44145;SDS011;29809;52.432;4.780;2023-01-15T08:26:35;14.57;;;3.80;;
44145;SDS011;29809;52.432;4.780;2023-01-15T08:29:00;12.77;;;3.83;;
44145;SDS011;29809;52.432;4.780;2023-01-15T08:31:25;17.42;;;3.42;;
44145;SDS011;29809;52.432;4.780;2023-01-15T08:33:50;15.00;;;4.13;;
44145;SDS011;29809;52.432;4.780;2023-01-15T08:36:16;8.33;;;3.17;;
44145;SDS011;29809;52.432;4.780;2023-01-15T08:38:42;10.00;;;3.03;;
44145;SDS011;29809;52.432;4.780;2023-01-15T08:41:07;16.30;;;3.30;;
44145;SDS011;29809;52.432;4.780;2023-01-15T08:43:33;8.87;;;2.83;;
44145;SDS011;29809;52.432;4.780;2023-01-15T08:45:58;10.40;;;2.37;;
44145;SDS011;29809;52.432;4.780;2023-01-15T08:48:24;15.40;;;3.43;;
44145;SDS011;29809;52.432;4.780;2023-01-15T08:50:50;7.80;;;2.33;;
44145;SDS011;29809;52.432;4.780;2023-01-15T08:53:15;9.73;;;2.67;;
44145;SDS011;29809;52.432;4.780;2023-01-15T08:55:40;8.60;;;2.60;;
44145;SDS011;29809;52.432;4.780;2023-01-15T08:58:06;8.83;;;2.87;;
44145;SDS011;29809;52.432;4.780;2023-01-15T09:00:31;9.33;;;2.60;;
44145;SDS011;29809;52.432;4.780;2023-01-15T09:02:57;7.70;;;2.80;;
44145;SDS011;29809;52.432;4.780;2023-01-15T09:05:22;6.97;;;2.30;;
44145;SDS011;29809;52.432;4.780;2023-01-15T09:07:47;8.73;;;2.70;;
44145;SDS011;29809;52.432;4.780;2023-01-15T09:10:13;7.40;;;2.40;;
44145;SDS011;29809;52.432;4.780;2023-01-15T09:12:38;9.33;;;2.30;;
44145;SDS011;29809;52.432;4.780;2023-01-15T09:15:03;7.97;;;2.07;;
44145;SDS011;29809;52.432;4.780;2023-01-15T09:17:29;6.95;;;2.42;;
44145;SDS011;29809;52.432;4.780;2023-01-15T09:19:55;7.67;;;2.40;;
44145;SDS011;29809;52.432;4.780;2023-01-15T09:22:20;8.38;;;2.15;;
44145;SDS011;29809;52.432;4.780;2023-01-15T09:24:46;9.27;;;2.38;;
44145;SDS011;29809;52.432;4.780;2023-01-15T09:27:11;6.63;;;2.38;;
44145;SDS011;29809;52.432;4.780;2023-01-15T09:29:36;8.85;;;1.92;;
44145;SDS011;29809;52.432;4.780;2023-01-15T09:32:02;9.55;;;2.80;;
44145;SDS011;29809;52.432;4.780;2023-01-15T09:34:27;9.32;;;2.35;;
44145;SDS011;29809;52.432;4.780;2023-01-15T09:36:52;11.07;;;2.57;;
44145;SDS011;29809;52.432;4.780;2023-01-15T09:39:17;10.93;;;2.70;;
44145;SDS011;29809;52.432;4.780;2023-01-15T09:44:41;4.70;;;1.93;;
44145;SDS011;29809;52.432;4.780;2023-01-15T09:52:23;8.83;;;2.57;;
44145;SDS011;29809;52.432;4.780;2023-01-15T09:57:33;10.97;;;2.87;;
44145;SDS011;29809;52.432;4.780;2023-01-15T09:59:59;7.35;;;2.53;;
44145;SDS011;29809;52.432;4.780;2023-01-15T10:07:58;9.23;;;2.10;;
44145;SDS011;29809;52.432;4.780;2023-01-15T10:10:29;7.90;;;2.53;;
44145;SDS011;29809;52.432;4.780;2023-01-15T10:12:59;7.82;;;2.30;;
44145;SDS011;29809;52.432;4.780;2023-01-15T10:15:36;9.47;;;2.40;;
44145;SDS011;29809;52.432;4.780;2023-01-15T10:18:04;4.85;;;1.60;;
44145;SDS011;29809;52.432;4.780;2023-01-15T10:25:34;8.68;;;2.00;;
44145;SDS011;29809;52.432;4.780;2023-01-15T10:28:03;6.85;;;2.00;;
44145;SDS011;29809;52.432;4.780;2023-01-15T10:30:33;5.88;;;1.77;;
44145;SDS011;29809;52.432;4.780;2023-01-15T10:33:03;6.03;;;1.93;;
44145;SDS011;29809;52.432;4.780;2023-01-15T10:35:52;9.67;;;2.27;;
44145;SDS011;29809;52.432;4.780;2023-01-15T10:38:25;7.63;;;2.25;;
44145;SDS011;29809;52.432;4.780;2023-01-15T10:43:20;7.95;;;2.03;;
44145;SDS011;29809;52.432;4.780;2023-01-15T10:45:51;6.10;;;2.22;;
44145;SDS011;29809;52.432;4.780;2023-01-15T10:48:24;5.90;;;2.17;;
44145;SDS011;29809;52.432;4.780;2023-01-15T10:50:50;8.45;;;2.50;;
44145;SDS011;29809;52.432;4.780;2023-01-15T10:53:25;9.25;;;2.55;;
44145;SDS011;29809;52.432;4.780;2023-01-15T10:55:54;7.65;;;2.55;;
44145;SDS011;29809;52.432;4.780;2023-01-15T10:58:27;5.70;;;2.20;;
44145;SDS011;29809;52.432;4.780;2023-01-15T11:01:05;7.57;;;2.23;;
44145;SDS011;29809;52.432;4.780;2023-01-15T11:03:35;6.47;;;2.70;;
44145;SDS011;29809;52.432;4.780;2023-01-15T11:06:01;7.00;;;2.60;;
44145;SDS011;29809;52.432;4.780;2023-01-15T11:08:26;6.28;;;2.05;;
44145;SDS011;29809;52.432;4.780;2023-01-15T11:10:55;8.15;;;2.15;;
44145;SDS011;29809;52.432;4.780;2023-01-15T11:13:23;5.38;;;1.90;;
44145;SDS011;29809;52.432;4.780;2023-01-15T11:16:14;8.68;;;3.60;;
44145;SDS011;29809;52.432;4.780;2023-01-15T11:19:00;6.70;;;2.13;;
44145;SDS011;29809;52.432;4.780;2023-01-15T11:21:44;6.35;;;2.45;;
44145;SDS011;29809;52.432;4.780;2023-01-15T11:24:13;8.02;;;2.42;;
44145;SDS011;29809;52.432;4.780;2023-01-15T11:26:39;9.50;;;2.67;;
44145;SDS011;29809;52.432;4.780;2023-01-15T11:29:11;6.13;;;2.38;;
44145;SDS011;29809;52.432;4.780;2023-01-15T11:31:38;5.13;;;2.20;;
44145;SDS011;29809;52.432;4.780;2023-01-15T11:34:04;8.93;;;3.30;;
44145;SDS011;29809;52.432;4.780;2023-01-15T11:36:30;6.07;;;2.40;;
44145;SDS011;29809;52.432;4.780;2023-01-15T11:38:56;7.00;;;3.17;;
44145;SDS011;29809;52.432;4.780;2023-01-15T11:41:28;7.78;;;2.50;;
44145;SDS011;29809;52.432;4.780;2023-01-15T11:44:12;6.03;;;2.28;;
44145;SDS011;29809;52.432;4.780;2023-01-15T11:46:57;9.80;;;2.75;;
44145;SDS011;29809;52.432;4.780;2023-01-15T11:49:53;8.55;;;2.70;;
44145;SDS011;29809;52.432;4.780;2023-01-15T11:52:38;7.50;;;2.58;;
44145;SDS011;29809;52.432;4.780;2023-01-15T11:55:09;10.13;;;2.60;;
44145;SDS011;29809;52.432;4.780;2023-01-15T11:57:35;12.50;;;2.75;;
44145;SDS011;29809;52.432;4.780;2023-01-15T12:00:01;6.53;;;2.58;;
44145;SDS011;29809;52.432;4.780;2023-01-15T12:02:35;8.70;;;2.55;;
44145;SDS011;29809;52.432;4.780;2023-01-15T12:05:20;12.07;;;2.85;;
44145;SDS011;29809;52.432;4.780;2023-01-15T12:07:50;7.55;;;2.55;;
44145;SDS011;29809;52.432;4.780;2023-01-15T12:18:04;7.72;;;2.83;;
44145;SDS011;29809;52.432;4.780;2023-01-15T12:25:40;7.85;;;3.25;;
44145;SDS011;29809;52.432;4.780;2023-01-15T12:28:13;10.02;;;2.97;;
44145;SDS011;29809;52.432;4.780;2023-01-15T12:30:50;7.72;;;2.70;;
44145;SDS011;29809;52.432;4.780;2023-01-15T12:36:17;8.65;;;2.22;;
44145;SDS011;29809;52.432;4.780;2023-01-15T12:41:25;6.85;;;2.45;;
44145;SDS011;29809;52.432;4.780;2023-01-15T12:44:11;9.63;;;2.45;;
44145;SDS011;29809;52.432;4.780;2023-01-15T12:46:57;9.48;;;2.75;;
44145;SDS011;29809;52.432;4.780;2023-01-15T12:51:57;9.25;;;2.75;;
44145;SDS011;29809;52.432;4.780;2023-01-15T12:54:27;9.27;;;2.45;;
44145;SDS011;29809;52.432;4.780;2023-01-15T12:57:15;6.22;;;2.35;;
44145;SDS011;29809;52.432;4.780;2023-01-15T13:07:24;9.20;;;2.50;;
44145;SDS011;29809;52.432;4.780;2023-01-15T13:12:34;8.23;;;2.63;;
44145;SDS011;29809;52.432;4.780;2023-01-15T13:15:00;9.77;;;2.17;;
44145;SDS011;29809;52.432;4.780;2023-01-15T13:17:42;6.72;;;2.38;;
44145;SDS011;29809;52.432;4.780;2023-01-15T13:20:17;8.52;;;2.30;;
44145;SDS011;29809;52.432;4.780;2023-01-15T13:22:51;8.68;;;2.58;;
44145;SDS011;29809;52.432;4.780;2023-01-15T13:28:18;6.57;;;2.33;;
44145;SDS011;29809;52.432;4.780;2023-01-15T13:30:59;7.60;;;2.40;;
44145;SDS011;29809;52.432;4.780;2023-01-15T13:36:11;8.00;;;2.25;;
44145;SDS011;29809;52.432;4.780;2023-01-15T13:38:40;6.82;;;1.95;;
44145;SDS011;29809;52.432;4.780;2023-01-15T13:41:07;6.10;;;1.90;;
44145;SDS011;29809;52.432;4.780;2023-01-15T13:43:33;4.70;;;1.90;;
44145;SDS011;29809;52.432;4.780;2023-01-15T13:46:04;9.57;;;2.00;;
44145;SDS011;29809;52.432;4.780;2023-01-15T13:48:32;5.78;;;2.00;;
44145;SDS011;29809;52.432;4.780;2023-01-15T13:50:59;5.97;;;1.92;;
44145;SDS011;29809;52.432;4.780;2023-01-15T13:55:57;5.28;;;2.13;;
44145;SDS011;29809;52.432;4.780;2023-01-15T13:58:29;7.35;;;1.98;;
44145;SDS011;29809;52.432;4.780;2023-01-15T14:03:39;6.88;;;2.03;;
44145;SDS011;29809;52.432;4.780;2023-01-15T14:06:05;7.22;;;2.05;;
44145;SDS011;29809;52.432;4.780;2023-01-15T14:08:41;5.00;;;1.73;;
44145;SDS011;29809;52.432;4.780;2023-01-15T14:19:42;5.80;;;2.05;;
44145;SDS011;29809;52.432;4.780;2023-01-15T14:27:11;4.65;;;2.03;;
44145;SDS011;29809;52.432;4.780;2023-01-15T14:34:22;4.60;;;1.40;;
44145;SDS011;29809;52.432;4.780;2023-01-15T14:36:50;3.50;;;1.20;;
44145;SDS011;29809;52.432;4.780;2023-01-15T14:39:59;6.17;;;2.00;;
44145;SDS011;29809;52.432;4.780;2023-01-15T14:42:06;4.17;;;1.30;;
44145;SDS011;29809;52.432;4.780;2023-01-15T14:44:59;3.58;;;1.42;;
44145;SDS011;29809;52.432;4.780;2023-01-15T14:47:42;5.20;;;1.53;;
44145;SDS011;29809;52.432;4.780;2023-01-15T14:52:47;2.70;;;1.17;;
44145;SDS011;29809;52.432;4.780;2023-01-15T14:55:13;3.25;;;1.30;;
44145;SDS011;29809;52.432;4.780;2023-01-15T14:57:40;1.73;;;1.00;;
44145;SDS011;29809;52.432;4.780;2023-01-15T15:00:06;4.10;;;1.35;;
44145;SDS011;29809;52.432;4.780;2023-01-15T15:02:36;4.93;;;1.17;;
44145;SDS011;29809;52.432;4.780;2023-01-15T15:05:03;3.35;;;1.42;;
44145;SDS011;29809;52.432;4.780;2023-01-15T15:07:38;6.50;;;1.77;;
44145;SDS011;29809;52.432;4.780;2023-01-15T15:10:06;2.58;;;1.50;;
44145;SDS011;29809;52.432;4.780;2023-01-15T15:15:01;3.13;;;1.15;;
44145;SDS011;29809;52.432;4.780;2023-01-15T15:17:36;4.85;;;1.40;;
44145;SDS011;29809;52.432;4.780;2023-01-15T15:20:20;2.75;;;1.35;;
44145;SDS011;29809;52.432;4.780;2023-01-15T15:22:47;2.67;;;1.25;;
44145;SDS011;29809;52.432;4.780;2023-01-15T15:25:16;3.88;;;1.15;;
44145;SDS011;29809;52.432;4.780;2023-01-15T15:27:43;5.13;;;1.33;;
44145;SDS011;29809;52.432;4.780;2023-01-15T15:30:09;4.40;;;1.25;;
44145;SDS011;29809;52.432;4.780;2023-01-15T15:32:35;4.00;;;1.38;;
44145;SDS011;29809;52.432;4.780;2023-01-15T15:35:04;33.50;;;3.47;;
44145;SDS011;29809;52.432;4.780;2023-01-15T15:37:30;8.13;;;1.90;;
44145;SDS011;29809;52.432;4.780;2023-01-15T15:39:57;6.50;;;1.55;;
44145;SDS011;29809;52.432;4.780;2023-01-15T15:42:34;5.85;;;1.48;;
44145;SDS011;29809;52.432;4.780;2023-01-15T15:45:23;6.05;;;2.28;;
44145;SDS011;29809;52.432;4.780;2023-01-15T15:48:12;6.32;;;1.40;;
44145;SDS011;29809;52.432;4.780;2023-01-15T15:50:56;5.03;;;1.23;;
44145;SDS011;29809;52.432;4.780;2023-01-15T15:53:22;6.20;;;1.63;;
44145;SDS011;29809;52.432;4.780;2023-01-15T15:55:47;4.00;;;1.60;;
44145;SDS011;29809;52.432;4.780;2023-01-15T15:58:26;5.07;;;1.42;;
44145;SDS011;29809;52.432;4.780;2023-01-15T16:00:53;7.82;;;2.10;;
44145;SDS011;29809;52.432;4.780;2023-01-15T16:03:28;3.70;;;1.35;;
44145;SDS011;29809;52.432;4.780;2023-01-15T16:06:03;3.78;;;1.73;;
44145;SDS011;29809;52.432;4.780;2023-01-15T16:08:29;4.10;;;1.30;;
44145;SDS011;29809;52.432;4.780;2023-01-15T16:10:56;5.97;;;1.85;;
44145;SDS011;29809;52.432;4.780;2023-01-15T16:15:51;6.22;;;1.80;;
44145;SDS011;29809;52.432;4.780;2023-01-15T16:18:22;5.93;;;2.00;;
44145;SDS011;29809;52.432;4.780;2023-01-15T16:20:48;7.63;;;2.25;;
44145;SDS011;29809;52.432;4.780;2023-01-15T16:23:18;3.30;;;1.52;;
44145;SDS011;29809;52.432;4.780;2023-01-15T16:25:53;5.05;;;1.90;;
44145;SDS011;29809;52.432;4.780;2023-01-15T16:28:23;5.03;;;1.65;;
44145;SDS011;29809;52.432;4.780;2023-01-15T16:30:56;7.57;;;2.05;;
44145;SDS011;29809;52.432;4.780;2023-01-15T16:33:21;3.85;;;1.77;;
44145;SDS011;29809;52.432;4.780;2023-01-15T16:35:47;7.10;;;2.20;;
44145;SDS011;29809;52.432;4.780;2023-01-15T16:38:13;5.13;;;2.05;;
44145;SDS011;29809;52.432;4.780;2023-01-15T16:40:43;9.13;;;2.17;;
44145;SDS011;29809;52.432;4.780;2023-01-15T16:43:10;5.00;;;1.55;;